This is the latest recevied weather packets stored in our database for station/object KQ4UPF. If no packets are shown the sender has not sent any weather packets the latest 10 day(s).
| Time | Temp. | Humidity | Pressure | Rain* | Wind** | Luminosity | Snow |
|---|---|---|---|---|---|---|---|
| 1778085939 | 22.22° C | 89% | 1014 hPa | 0 mm | - | 60 W/m² | - |
| 1778085636 | 22.22° C | 89% | 1013.8 hPa | 0 mm | - | 74 W/m² | - |
| 1778085332 | 22.22° C | 87% | 1014 hPa | 0 mm | - | 129 W/m² | - |
| 1778085028 | 22.78° C | 86% | 1013.4 hPa | 0 mm | - | 120 W/m² | - |
| 1778084724 | 22.78° C | 83% | 1013.6 hPa | 0 mm | - | 201 W/m² | - |
| 1778084422 | 22.78° C | 84% | 1013.5 hPa | 0 mm | - | 265 W/m² | - |
| 1778084119 | 22.78° C | 83% | 1013.6 hPa | 0 mm | - | 293 W/m² | - |
| 1778083816 | 23.33° C | 84% | 1013.3 hPa | 0 mm | - | 371 W/m² | - |
| 1778083513 | 23.33° C | 85% | 1013.5 hPa | 0 mm | - | 255 W/m² | - |
| 1778083211 | 22.78° C | 86% | 1013.9 hPa | 0 mm | - | 548 W/m² | - |
| 1778082909 | 22.22° C | 84% | 1013.9 hPa | 0 mm | - | 438 W/m² | - |
| 1778081800 | 21.67° C | 89% | 1013.9 hPa | 0 mm | - | 478 W/m² | - |
| 1778081497 | 21.11° C | 89% | 1014.2 hPa | 0 mm | - | 260 W/m² | - |
| 1778081194 | 21.11° C | 89% | 1014.2 hPa | 0 mm | - | 228 W/m² | - |
| 1778080892 | 20.56° C | 90% | 1014.1 hPa | 0 mm | - | 294 W/m² | - |
| 1778080590 | 20.56° C | 91% | 1014.1 hPa | 0 mm | - | 174 W/m² | - |
| 1778080287 | 20.56° C | 91% | 1014 hPa | 0 mm | - | 212 W/m² | - |
| 1778079984 | 20° C | 91% | 1014.1 hPa | 0 mm | - | 225 W/m² | - |
| 1778079681 | 20° C | 91% | 1014.4 hPa | 0 mm | - | 114 W/m² | - |
| 1778079378 | 20° C | 91% | 1014.4 hPa | 0 mm | - | 167 W/m² | - |
| 1778079075 | 20° C | 92% | 1014.5 hPa | 0 mm | - | 243 W/m² | - |
| 1778078772 | 20° C | 92% | 1014.3 hPa | 0 mm | - | 53 W/m² | - |
| 1778078468 | 20° C | 91% | 1014.6 hPa | 0 mm | - | 42 W/m² | - |
| 1778078166 | 20° C | 91% | 1014.6 hPa | 0 mm | - | 55 W/m² | - |
| 1778077864 | 20° C | 92% | 1014.4 hPa | 0 mm | - | 139 W/m² | - |
* Rain latest hour (hover to see other rain measurements)
** Current wind speed in m/s (hover to see current wind gust speed)